createdAt,value
2022-08-17T00:01:51.768Z,21.02
2022-08-17T00:04:20.394Z,21.02
2022-08-17T00:06:49.298Z,21.02
2022-08-17T00:09:19.070Z,21.05
2022-08-17T00:12:42.216Z,20.97
2022-08-17T00:14:36.124Z,20.95
2022-08-17T00:17:04.747Z,20.91
2022-08-17T00:19:32.991Z,20.83
2022-08-17T00:22:35.265Z,20.72
2022-08-17T00:24:49.954Z,20.46
2022-08-17T00:27:17.369Z,20.57
2022-08-17T00:29:46.072Z,20.63
2022-08-17T00:33:11.987Z,20.61
2022-08-17T00:35:04.797Z,20.10
2022-08-17T00:37:31.704Z,20.11
2022-08-17T00:39:59.580Z,19.97
2022-08-17T00:42:30.969Z,20.11
2022-08-17T00:44:58.705Z,20.27
2022-08-17T00:47:25.881Z,20.34
2022-08-17T00:49:53.106Z,20.33
2022-08-17T00:52:23.243Z,20.37
2022-08-17T00:54:52.388Z,20.37
2022-08-17T00:57:23.492Z,20.37
2022-08-17T01:00:02.430Z,20.36
2022-08-17T01:02:42.190Z,20.23
2022-08-17T01:05:21.297Z,19.89
2022-08-17T01:07:50.986Z,20.04
2022-08-17T01:11:00.476Z,20.08
2022-08-17T01:13:07.957Z,20.06
2022-08-17T01:15:37.580Z,19.52
2022-08-17T01:18:06.041Z,19.42
2022-08-17T01:20:41.878Z,19.52
2022-08-17T01:23:20.460Z,19.69
2022-08-17T01:25:53.630Z,19.81
2022-08-17T01:28:53.122Z,19.89
2022-08-17T01:31:09.237Z,19.90
2022-08-17T01:33:36.436Z,19.90
2022-08-17T01:36:06.286Z,19.93
2022-08-17T01:38:37.553Z,19.87
2022-08-17T01:41:10.661Z,19.92
2022-08-17T01:43:45.532Z,19.86
2022-08-17T01:46:17.150Z,19.81
2022-08-17T01:48:47.378Z,19.87
2022-08-17T01:51:15.714Z,19.84
2022-08-17T01:53:47.346Z,19.77
2022-08-17T01:56:17.635Z,19.75
2022-08-17T01:58:44.590Z,19.52
2022-08-17T02:01:14.856Z,19.52
2022-08-17T02:03:42.388Z,19.54
2022-08-17T02:06:27.792Z,19.57
2022-08-17T02:09:02.448Z,19.52
2022-08-17T02:11:33.163Z,19.57
2022-08-17T02:14:03.275Z,19.59
2022-08-17T02:16:37.631Z,19.60
2022-08-17T02:19:11.812Z,19.58
2022-08-17T02:21:39.538Z,19.54
2022-08-17T02:24:12.954Z,19.52
2022-08-17T02:26:39.917Z,19.47
2022-08-17T02:29:07.300Z,19.47
2022-08-17T02:31:35.595Z,19.48
2022-08-17T02:34:04.934Z,19.48
2022-08-17T02:36:35.423Z,19.43
2022-08-17T02:39:08.061Z,19.38
2022-08-17T02:41:35.494Z,19.35
2022-08-17T02:44:02.700Z,19.40
2022-08-17T02:46:31.100Z,19.40
2022-08-17T02:48:58.824Z,19.34
2022-08-17T02:51:26.793Z,19.20
2022-08-17T02:54:39.717Z,19.25
2022-08-17T02:56:40.565Z,19.24
2022-08-17T02:59:07.453Z,19.23
2022-08-17T03:01:34.474Z,19.16
2022-08-17T03:04:01.454Z,18.97
2022-08-17T03:06:29.250Z,19.12
2022-08-17T03:08:56.985Z,19.01
2022-08-17T03:11:23.841Z,18.80
2022-08-17T03:13:51.114Z,18.57
2022-08-17T03:16:18.106Z,18.43
2022-08-17T03:18:44.927Z,18.54
2022-08-17T03:21:12.347Z,18.67
2022-08-17T03:23:41.211Z,18.78
2022-08-17T03:26:12.396Z,18.81
2022-08-17T03:28:42.442Z,18.87
2022-08-17T03:31:09.399Z,18.83
2022-08-17T03:33:36.229Z,18.74
2022-08-17T03:36:03.467Z,18.74
2022-08-17T03:38:30.433Z,18.68
2022-08-17T03:41:06.629Z,18.43
2022-08-17T03:43:34.687Z,18.50
2022-08-17T03:46:28.310Z,18.57
2022-08-17T03:49:24.260Z,18.59
2022-08-17T03:52:09.788Z,18.69
2022-08-17T03:54:55.660Z,18.72
2022-08-17T03:57:22.682Z,18.72
2022-08-17T03:59:50.728Z,18.72
2022-08-17T04:02:27.703Z,18.70
2022-08-17T04:04:54.660Z,18.73
2022-08-17T04:07:24.010Z,18.79
2022-08-17T04:09:52.530Z,18.82
2022-08-17T04:12:21.909Z,18.86
2022-08-17T04:14:52.792Z,18.84
2022-08-17T04:17:25.987Z,18.83
2022-08-17T04:19:55.505Z,18.65
2022-08-17T04:22:31.454Z,18.61
2022-08-17T04:25:15.826Z,18.52
2022-08-17T04:27:42.825Z,18.60
2022-08-17T04:30:10.462Z,18.77
2022-08-17T04:33:07.259Z,18.91
2022-08-17T04:35:41.261Z,19.15
2022-08-17T04:38:10.151Z,19.85
2022-08-17T04:40:56.341Z,20.52
2022-08-17T04:43:24.961Z,20.28
2022-08-17T04:46:06.711Z,20.04
2022-08-17T04:48:46.029Z,20.73
2022-08-17T04:51:33.042Z,22.67
2022-08-17T04:54:09.896Z,23.79
2022-08-17T04:56:37.254Z,25.38
2022-08-17T04:59:09.023Z,24.53
2022-08-17T05:01:38.108Z,24.67
2022-08-17T05:04:33.187Z,25.17
2022-08-17T05:06:57.576Z,24.82
2022-08-17T05:09:24.529Z,25.37
2022-08-17T05:11:51.405Z,25.86
2022-08-17T05:14:18.256Z,23.93
2022-08-17T05:16:48.246Z,25.61
2022-08-17T05:19:15.066Z,25.87
2022-08-17T05:21:41.945Z,26.23
2022-08-17T05:24:38.599Z,26.06
2022-08-17T05:27:06.286Z,24.94
2022-08-17T05:29:35.443Z,25.45
2022-08-17T05:32:39.054Z,25.77
2022-08-17T05:35:00.782Z,25.26
2022-08-17T05:37:27.773Z,25.76
2022-08-17T05:39:58.014Z,25.25
2022-08-17T05:42:24.863Z,25.19
2022-08-17T05:44:51.831Z,25.34
2022-08-17T05:47:18.702Z,25.26
2022-08-17T05:49:49.052Z,25.38
2022-08-17T05:52:22.512Z,25.66
2022-08-17T05:54:49.234Z,25.43
2022-08-17T05:57:42.370Z,25.77
2022-08-17T06:00:29.997Z,25.81
2022-08-17T06:03:27.921Z,25.54
2022-08-17T06:06:02.662Z,26.02
2022-08-17T06:08:55.823Z,26.37
2022-08-17T06:11:31.389Z,26.38
2022-08-17T06:14:22.253Z,26.66
2022-08-17T06:16:53.893Z,26.91
2022-08-17T06:19:38.852Z,26.91
2022-08-17T06:22:06.590Z,26.85
2022-08-17T06:24:44.087Z,26.86
2022-08-17T06:27:21.826Z,26.91
2022-08-17T06:30:09.275Z,26.56
2022-08-17T06:32:45.331Z,27.23
2022-08-17T06:35:15.575Z,27.42
2022-08-17T06:37:48.947Z,27.71
2022-08-17T06:40:45.637Z,27.72
2022-08-17T06:43:34.064Z,27.67
2022-08-17T06:46:15.217Z,27.81
2022-08-17T06:49:07.429Z,27.91
2022-08-17T06:51:46.254Z,28.31
2022-08-17T06:54:39.388Z,28.11
2022-08-17T06:57:14.507Z,28.41
2022-08-17T06:59:57.130Z,28.04
2022-08-17T07:02:53.132Z,28.17
2022-08-17T07:05:23.899Z,28.39
2022-08-17T07:08:07.790Z,29.06
2022-08-17T07:10:48.489Z,29.24
2022-08-17T07:13:31.757Z,28.98
2022-08-17T07:16:11.132Z,29.42
2022-08-17T07:18:38.257Z,29.72
2022-08-17T07:21:17.338Z,29.91
2022-08-17T07:24:02.313Z,29.87
2022-08-17T07:26:29.699Z,29.91
2022-08-17T07:28:56.720Z,30.54
2022-08-17T07:31:25.331Z,30.94
2022-08-17T07:34:14.509Z,31.25
2022-08-17T07:36:42.565Z,31.42
2022-08-17T07:39:10.804Z,31.78
2022-08-17T07:41:57.852Z,32.03
2022-08-17T07:44:27.124Z,32.22
2022-08-17T07:47:32.720Z,31.29
2022-08-17T07:50:25.955Z,30.19
2022-08-17T07:52:54.144Z,30.64
2022-08-17T07:55:40.533Z,29.78
2022-08-17T07:58:07.918Z,30.22
2022-08-17T08:00:35.047Z,31.23
2022-08-17T08:03:13.290Z,31.84
2022-08-17T08:06:02.054Z,31.58
2022-08-17T08:08:31.855Z,31.80
2022-08-17T08:11:15.406Z,31.97
2022-08-17T08:13:45.676Z,32.38
2022-08-17T08:16:29.391Z,32.25
2022-08-17T08:19:01.253Z,32.13
2022-08-17T08:21:49.483Z,32.87
2022-08-17T08:25:28.730Z,33.05
2022-08-17T08:28:07.887Z,33.20
2022-08-17T08:30:37.611Z,33.35
2022-08-17T08:33:17.253Z,33.45
2022-08-17T08:35:54.616Z,33.91
2022-08-17T08:38:30.926Z,33.91
2022-08-17T08:41:06.154Z,34.18
2022-08-17T08:43:53.200Z,34.18
2022-08-17T08:46:22.813Z,34.45
2022-08-17T08:49:58.945Z,34.61
2022-08-17T08:52:30.921Z,34.56
2022-08-17T08:55:07.556Z,34.77
2022-08-17T08:57:40.269Z,34.94
2022-08-17T09:00:16.839Z,34.86
2022-08-17T09:02:58.746Z,34.83
2022-08-17T09:05:48.371Z,32.88
2022-08-17T09:08:24.533Z,32.69
2022-08-17T09:11:06.077Z,33.84
2022-08-17T09:13:32.857Z,33.28
2022-08-17T09:16:23.211Z,33.19
2022-08-17T09:19:03.367Z,33.74
2022-08-17T09:21:48.015Z,34.12
2022-08-17T09:24:57.075Z,34.53
2022-08-17T09:27:38.436Z,34.97
2022-08-17T09:30:09.954Z,35.38
2022-08-17T09:32:41.935Z,35.67
2022-08-17T09:35:15.905Z,36.05
2022-08-17T09:38:01.271Z,35.26
2022-08-17T09:40:57.041Z,34.93
2022-08-17T09:43:56.838Z,34.36
2022-08-17T09:47:19.434Z,34.65
2022-08-17T09:49:53.309Z,35.42
2022-08-17T09:52:28.874Z,35.02
2022-08-17T09:54:57.465Z,34.28
2022-08-17T09:57:31.371Z,33.86
2022-08-17T10:00:13.678Z,33.33
2022-08-17T10:02:54.407Z,33.61
2022-08-17T10:05:33.239Z,33.33
2022-08-17T10:08:02.695Z,34.04
2022-08-17T10:11:33.340Z,34.52
2022-08-17T10:14:37.860Z,34.81
2022-08-17T10:17:08.465Z,34.83
2022-08-17T10:19:39.472Z,34.72
2022-08-17T10:22:58.456Z,34.43
2022-08-17T10:26:00.041Z,34.94
2022-08-17T10:28:30.626Z,34.56
2022-08-17T10:33:53.398Z,34.96
2022-08-17T10:36:34.469Z,34.65
2022-08-17T10:39:20.446Z,35.41
2022-08-17T10:41:51.305Z,35.42
2022-08-17T10:45:04.748Z,35.92
2022-08-17T10:48:06.718Z,35.64
2022-08-17T10:50:55.937Z,36.30
2022-08-17T10:53:31.819Z,35.99
2022-08-17T10:56:14.106Z,36.25
2022-08-17T10:59:07.412Z,36.46
2022-08-17T11:01:34.244Z,35.54
2022-08-17T11:04:03.963Z,35.96
2022-08-17T11:07:06.228Z,35.69
2022-08-17T11:10:00.215Z,35.50
2022-08-17T11:12:38.617Z,34.96
2022-08-17T11:15:22.423Z,35.46
2022-08-17T11:18:02.556Z,34.75
2022-08-17T11:20:54.752Z,34.94
2022-08-17T11:23:45.725Z,35.16
2022-08-17T11:26:34.811Z,35.85
2022-08-17T11:29:09.598Z,36.17
2022-08-17T11:31:43.537Z,35.63
2022-08-17T11:34:21.667Z,35.58
2022-08-17T11:37:14.756Z,35.32
2022-08-17T11:40:06.101Z,35.79
2022-08-17T11:42:37.508Z,35.35
2022-08-17T11:45:32.285Z,35.52
2022-08-17T11:48:29.352Z,36.08
2022-08-17T11:51:24.304Z,36.39
2022-08-17T11:53:59.877Z,35.87
2022-08-17T11:56:49.454Z,36.19
2022-08-17T11:59:39.496Z,35.92
2022-08-17T12:02:35.333Z,36.43
2022-08-17T12:05:12.306Z,36.10
2022-08-17T12:07:49.528Z,35.18
2022-08-17T12:10:21.493Z,35.77
2022-08-17T12:12:50.474Z,35.31
2022-08-17T12:15:19.829Z,35.76
2022-08-17T12:17:54.201Z,36.38
2022-08-17T12:20:33.370Z,36.57
2022-08-17T12:23:15.082Z,36.02
2022-08-17T12:25:55.445Z,36.13
2022-08-17T12:28:26.842Z,35.05
2022-08-17T12:30:54.405Z,35.01
2022-08-17T12:33:25.203Z,34.98
2022-08-17T12:36:03.071Z,35.21
2022-08-17T12:38:34.435Z,34.95
2022-08-17T12:41:23.578Z,35.10
2022-08-17T12:44:13.365Z,34.83
2022-08-17T12:46:50.725Z,34.70
2022-08-17T12:49:35.604Z,34.99
2022-08-17T12:52:20.468Z,34.31
2022-08-17T12:54:59.635Z,34.16
2022-08-17T12:57:32.805Z,34.61
2022-08-17T13:00:27.105Z,34.91
2022-08-17T13:03:34.293Z,35.20
2022-08-17T13:06:09.506Z,35.58
2022-08-17T13:08:41.213Z,35.83
2022-08-17T13:11:20.229Z,36.05
2022-08-17T13:13:54.271Z,36.02
2022-08-17T13:16:26.757Z,35.94
2022-08-17T13:19:05.059Z,36.01
2022-08-17T13:21:33.272Z,35.79
2022-08-17T13:24:07.988Z,36.05
2022-08-17T13:26:42.647Z,36.31
2022-08-17T13:29:29.063Z,36.55
2022-08-17T13:32:16.761Z,36.39
2022-08-17T13:35:13.475Z,35.96
2022-08-17T13:37:40.724Z,35.53
2022-08-17T13:40:09.936Z,35.92
2022-08-17T13:42:52.086Z,36.21
2022-08-17T13:45:36.767Z,36.29
2022-08-17T13:48:27.426Z,36.09
2022-08-17T13:50:57.329Z,36.17
2022-08-17T13:53:34.273Z,36.11
2022-08-17T13:56:38.329Z,35.62
2022-08-17T13:59:15.691Z,36.08
2022-08-17T14:01:49.684Z,35.62
2022-08-17T14:04:27.822Z,35.57
2022-08-17T14:07:16.029Z,35.98
2022-08-17T14:09:58.046Z,35.70
2022-08-17T14:12:26.804Z,35.86
2022-08-17T14:14:55.155Z,35.84
2022-08-17T14:17:23.226Z,35.49
2022-08-17T14:19:51.152Z,35.74
2022-08-17T14:22:33.112Z,35.72
2022-08-17T14:25:01.723Z,35.97
2022-08-17T14:27:31.866Z,35.86
2022-08-17T14:30:00.383Z,35.63
2022-08-17T14:32:30.295Z,35.67
2022-08-17T14:34:57.993Z,35.87
2022-08-17T14:37:27.978Z,35.91
2022-08-17T14:39:56.397Z,35.86
2022-08-17T14:42:24.967Z,35.85
2022-08-17T14:44:55.584Z,35.44
2022-08-17T14:47:22.813Z,35.30
2022-08-17T14:49:51.277Z,35.15
2022-08-17T14:52:21.795Z,35.09
2022-08-17T14:54:51.373Z,35.20
2022-08-17T14:57:25.808Z,35.24
2022-08-17T15:00:05.282Z,35.09
2022-08-17T15:02:44.042Z,34.91
2022-08-17T15:05:11.008Z,34.69
2022-08-17T15:07:38.016Z,34.73
2022-08-17T15:10:06.218Z,34.81
2022-08-17T15:12:34.745Z,34.72
2022-08-17T15:15:04.813Z,34.45
2022-08-17T15:17:43.679Z,34.13
2022-08-17T15:20:17.652Z,34.38
2022-08-17T15:22:45.624Z,34.23
2022-08-17T15:25:13.518Z,34.17
2022-08-17T15:27:40.660Z,34.12
2022-08-17T15:30:09.872Z,34.17
2022-08-17T15:32:40.653Z,34.16
2022-08-17T15:35:11.787Z,33.96
2022-08-17T15:37:40.260Z,34.03
2022-08-17T15:40:10.482Z,34.07
2022-08-17T15:42:38.546Z,33.94
2022-08-17T15:45:12.310Z,34.02
2022-08-17T15:47:40.376Z,33.98
2022-08-17T15:50:10.717Z,33.83
2022-08-17T15:52:40.391Z,33.65
2022-08-17T15:55:11.523Z,33.56
2022-08-17T15:57:38.756Z,33.51
2022-08-17T16:00:08.745Z,33.51
2022-08-17T16:03:45.965Z,33.50
2022-08-17T16:05:25.185Z,33.39
2022-08-17T16:07:53.608Z,33.37
2022-08-17T16:10:21.132Z,33.40
2022-08-17T16:12:49.279Z,33.34
2022-08-17T16:15:17.254Z,33.27
2022-08-17T16:17:44.160Z,33.25
2022-08-17T16:20:19.571Z,33.20
2022-08-17T16:22:46.845Z,33.12
2022-08-17T16:25:20.016Z,33.07
2022-08-17T16:27:49.339Z,33.03
2022-08-17T16:30:17.614Z,32.93
2022-08-17T16:32:45.660Z,32.87
2022-08-17T16:35:16.200Z,32.82
2022-08-17T16:37:44.635Z,32.70
2022-08-17T16:40:14.745Z,32.68
2022-08-17T16:42:43.197Z,32.63
2022-08-17T16:45:16.759Z,32.58
2022-08-17T16:47:43.718Z,32.54
2022-08-17T16:50:14.667Z,32.48
2022-08-17T16:52:42.251Z,32.35
2022-08-17T16:55:10.591Z,32.31
2022-08-17T16:57:47.224Z,32.27
2022-08-17T17:00:19.370Z,32.21
2022-08-17T17:02:48.213Z,32.18
2022-08-17T17:05:42.997Z,32.07
2022-08-17T17:08:19.586Z,31.98
2022-08-17T17:10:49.389Z,31.88
2022-08-17T17:13:37.891Z,31.82
2022-08-17T17:16:26.355Z,31.71
2022-08-17T17:19:34.368Z,31.60
2022-08-17T17:22:22.869Z,31.50
2022-08-17T17:25:08.216Z,31.36
2022-08-17T17:27:47.162Z,31.26
2022-08-17T17:30:16.222Z,31.16
2022-08-17T17:32:52.938Z,31.00
2022-08-17T17:35:31.833Z,30.94
2022-08-17T17:38:04.350Z,30.82
2022-08-17T17:40:40.074Z,30.71
2022-08-17T17:43:36.888Z,30.55
2022-08-17T17:46:09.178Z,30.45
2022-08-17T17:48:55.060Z,30.34
2022-08-17T17:52:11.161Z,30.19
2022-08-17T17:54:54.999Z,30.04
2022-08-17T17:57:58.106Z,29.92
2022-08-17T18:00:26.337Z,29.78
2022-08-17T18:03:31.054Z,29.67
2022-08-17T18:06:40.112Z,29.54
2022-08-17T18:09:39.125Z,29.41
2022-08-17T18:12:22.702Z,29.27
2022-08-17T18:14:58.657Z,29.13
2022-08-17T18:17:25.553Z,29.05
2022-08-17T18:19:55.501Z,28.95
2022-08-17T18:22:23.280Z,28.85
2022-08-17T18:24:56.471Z,28.71
2022-08-17T18:27:32.010Z,28.59
2022-08-17T18:30:15.178Z,28.37
2022-08-17T18:32:46.429Z,28.45
2022-08-17T18:35:16.066Z,28.12
2022-08-17T18:37:48.501Z,27.74
2022-08-17T18:40:19.525Z,27.32
2022-08-17T18:43:00.333Z,27.08
2022-08-17T18:45:51.189Z,26.94
2022-08-17T18:48:32.882Z,26.90
2022-08-17T18:51:39.782Z,26.91
2022-08-17T18:54:09.393Z,26.79
2022-08-17T18:56:57.418Z,26.73
2022-08-17T18:59:48.312Z,26.67
2022-08-17T19:02:27.233Z,26.24
2022-08-17T19:05:34.939Z,26.16
2022-08-17T19:08:24.751Z,25.92
2022-08-17T19:10:54.680Z,25.96
2022-08-17T19:13:44.690Z,25.98
2022-08-17T19:16:18.083Z,26.16
2022-08-17T19:18:49.052Z,26.19
2022-08-17T19:21:23.496Z,26.19
2022-08-17T19:24:11.741Z,26.19
2022-08-17T19:26:54.245Z,25.96
2022-08-17T19:29:40.651Z,25.95
2022-08-17T19:32:08.438Z,25.98
2022-08-17T19:34:36.869Z,25.96
2022-08-17T19:37:38.865Z,25.93
2022-08-17T19:40:09.083Z,25.90
2022-08-17T19:43:11.474Z,25.84
2022-08-17T19:45:49.164Z,25.80
2022-08-17T19:48:37.898Z,25.66
2022-08-17T19:51:13.110Z,25.65
2022-08-17T19:54:05.395Z,25.64
2022-08-17T19:56:40.590Z,25.61
2022-08-17T19:59:36.900Z,25.57
2022-08-17T20:02:24.055Z,25.44
2022-08-17T20:04:51.185Z,25.29
2022-08-17T20:07:31.491Z,25.18
2022-08-17T20:10:06.580Z,24.85
2022-08-17T20:12:36.322Z,24.95
2022-08-17T20:15:13.840Z,24.83
2022-08-17T20:17:43.819Z,24.37
2022-08-17T20:20:50.206Z,24.43
2022-08-17T20:23:49.400Z,24.43
2022-08-17T20:26:47.883Z,24.32
2022-08-17T20:30:06.660Z,24.25
2022-08-17T20:32:55.466Z,24.20
2022-08-17T20:35:37.935Z,24.21
2022-08-17T20:38:06.703Z,24.19
2022-08-17T20:40:36.324Z,24.18
2022-08-17T20:43:44.319Z,24.08
2022-08-17T20:46:26.875Z,24.11
2022-08-17T20:48:57.552Z,23.98
2022-08-17T20:51:27.358Z,23.96
2022-08-17T20:53:54.078Z,23.93
2022-08-17T20:56:47.446Z,23.87
2022-08-17T20:59:27.564Z,23.79
2022-08-17T21:02:21.269Z,23.70
2022-08-17T21:04:51.338Z,23.66
2022-08-17T21:07:42.920Z,23.59
2022-08-17T21:10:37.570Z,23.15
2022-08-17T21:13:22.974Z,22.94
2022-08-17T21:15:59.021Z,22.83
2022-08-17T21:18:28.821Z,22.74
2022-08-17T21:21:04.693Z,22.78
2022-08-17T21:24:08.943Z,22.87
2022-08-17T21:26:55.418Z,22.91
2022-08-17T21:29:32.592Z,22.80
2022-08-17T21:32:03.604Z,22.75
2022-08-17T21:35:07.151Z,22.72
2022-08-17T21:37:48.294Z,22.79
2022-08-17T21:40:19.003Z,22.75
2022-08-17T21:42:49.058Z,22.75
2022-08-17T21:45:35.568Z,22.77
2022-08-17T21:48:20.304Z,22.69
2022-08-17T21:50:58.462Z,22.76
2022-08-17T21:53:33.009Z,22.76
2022-08-17T21:56:00.232Z,22.71
2022-08-17T21:58:32.840Z,22.66
2022-08-17T22:01:31.702Z,22.64
2022-08-17T22:04:11.533Z,22.64
2022-08-17T22:06:56.691Z,22.40
2022-08-17T22:09:42.236Z,22.37
2022-08-17T22:12:17.267Z,22.36
2022-08-17T22:14:52.648Z,22.02
2022-08-17T22:17:46.133Z,22.14
2022-08-17T22:20:18.923Z,22.19
2022-08-17T22:23:04.419Z,22.11
2022-08-17T22:25:34.112Z,22.11
2022-08-17T22:28:03.202Z,22.17
2022-08-17T22:30:32.134Z,22.19
2022-08-17T22:33:00.309Z,22.23
2022-08-17T22:35:41.672Z,22.19
2022-08-17T22:38:20.791Z,22.16
2022-08-17T22:40:49.992Z,21.69
2022-08-17T22:43:21.262Z,20.89
2022-08-17T22:45:55.587Z,21.04
2022-08-17T22:48:27.537Z,21.31
2022-08-17T22:51:14.665Z,21.57
2022-08-17T22:54:12.341Z,21.73
2022-08-17T22:57:12.503Z,21.84
2022-08-17T22:59:44.980Z,21.75
2022-08-17T23:02:33.096Z,21.91
2022-08-17T23:05:13.014Z,21.99
2022-08-17T23:07:40.749Z,22.06
2022-08-17T23:10:11.169Z,21.94
2022-08-17T23:12:40.676Z,21.99
2022-08-17T23:15:19.016Z,22.07
2022-08-17T23:17:46.079Z,22.00
2022-08-17T23:20:15.084Z,22.07
2022-08-17T23:22:51.443Z,22.15
2022-08-17T23:25:31.563Z,22.08
2022-08-17T23:28:01.532Z,21.19
2022-08-17T23:30:31.169Z,21.40
2022-08-17T23:33:01.123Z,21.12
2022-08-17T23:35:40.613Z,20.93
2022-08-17T23:38:10.017Z,21.16
2022-08-17T23:40:37.843Z,21.34
2022-08-17T23:43:23.521Z,21.36
2022-08-17T23:45:56.187Z,21.47
2022-08-17T23:48:32.483Z,21.51
2022-08-17T23:51:05.945Z,21.51
2022-08-17T23:53:34.782Z,21.45
2022-08-17T23:56:09.543Z,21.56
2022-08-17T23:58:42.415Z,21.58
